createdAt,value
2022-09-02T00:02:10.894Z,22.20
2022-09-02T00:04:39.154Z,22.30
2022-09-02T00:07:07.068Z,22.10
2022-09-02T00:09:35.109Z,22.20
2022-09-02T00:12:05.384Z,22.00
2022-09-02T00:14:39.363Z,22.10
2022-09-02T00:17:14.743Z,22.10
2022-09-02T00:19:45.064Z,22.00
2022-09-02T00:22:13.284Z,22.10
2022-09-02T00:24:41.220Z,22.00
2022-09-02T00:27:09.141Z,22.10
2022-09-02T00:29:39.697Z,22.00
2022-09-02T00:32:07.915Z,21.70
2022-09-02T00:34:37.963Z,21.70
2022-09-02T00:37:05.863Z,21.50
2022-09-02T00:39:33.927Z,21.50
2022-09-02T00:42:04.565Z,21.50
2022-09-02T00:44:32.523Z,21.60
2022-09-02T00:47:04.183Z,21.60
2022-09-02T00:49:36.538Z,21.60
2022-09-02T00:52:14.236Z,21.60
2022-09-02T00:54:49.320Z,21.50
2022-09-02T00:57:22.075Z,21.30
2022-09-02T00:59:58.092Z,21.40
2022-09-02T01:02:28.954Z,21.40
2022-09-02T01:04:59.268Z,21.50
2022-09-02T01:07:30.394Z,21.60
2022-09-02T01:10:01.815Z,21.60
2022-09-02T01:12:31.433Z,21.70
2022-09-02T01:14:59.430Z,21.80
2022-09-02T01:17:29.010Z,21.90
2022-09-02T01:20:02.600Z,21.90
2022-09-02T01:22:46.766Z,21.80
2022-09-02T01:25:17.788Z,21.80
2022-09-02T01:27:48.142Z,21.70
2022-09-02T01:30:20.911Z,21.70
2022-09-02T01:32:49.158Z,21.70
2022-09-02T01:35:18.023Z,21.60
2022-09-02T01:37:56.779Z,21.40
2022-09-02T01:40:29.068Z,21.40
2022-09-02T01:43:05.685Z,21.50
2022-09-02T01:45:34.065Z,21.50
2022-09-02T01:48:04.341Z,21.30
2022-09-02T01:50:33.281Z,21.30
2022-09-02T01:53:03.799Z,21.40
2022-09-02T01:55:33.866Z,21.50
2022-09-02T01:58:04.249Z,21.20
2022-09-02T02:00:49.456Z,21.00
2022-09-02T02:03:20.152Z,21.00
2022-09-02T02:05:48.579Z,21.10
2022-09-02T02:08:26.775Z,21.10
2022-09-02T02:10:57.335Z,20.90
2022-09-02T02:13:28.444Z,21.00
2022-09-02T02:15:56.459Z,20.90
2022-09-02T02:18:26.787Z,21.20
2022-09-02T02:20:54.702Z,21.20
2022-09-02T02:23:26.758Z,21.20
2022-09-02T02:25:54.679Z,21.10
2022-09-02T02:28:24.782Z,21.10
2022-09-02T02:30:55.909Z,21.10
2022-09-02T02:33:31.912Z,21.10
2022-09-02T02:36:07.586Z,20.90
2022-09-02T02:38:41.350Z,21.00
2022-09-02T02:41:10.191Z,21.10
2022-09-02T02:43:38.462Z,21.00
2022-09-02T02:46:07.121Z,21.10
2022-09-02T02:48:39.059Z,21.00
2022-09-02T02:51:07.704Z,20.90
2022-09-02T02:53:36.911Z,20.80
2022-09-02T02:56:07.068Z,20.60
2022-09-02T02:58:37.747Z,20.60
2022-09-02T03:01:05.710Z,20.70
2022-09-02T03:03:33.799Z,20.60
2022-09-02T03:06:01.793Z,20.70
2022-09-02T03:08:32.403Z,20.70
2022-09-02T03:11:05.810Z,20.50
2022-09-02T03:13:37.882Z,20.50
2022-09-02T03:16:09.030Z,20.30
2022-09-02T03:18:37.168Z,20.40
2022-09-02T03:21:09.281Z,20.40
2022-09-02T03:23:37.518Z,20.30
2022-09-02T03:26:11.181Z,20.30
2022-09-02T03:28:41.147Z,20.10
2022-09-02T03:31:14.348Z,20.30
2022-09-02T03:33:49.376Z,20.30
2022-09-02T03:36:23.106Z,20.50
2022-09-02T03:38:51.306Z,20.40
2022-09-02T03:41:19.199Z,20.30
2022-09-02T03:43:50.803Z,20.40
2022-09-02T03:46:21.558Z,20.40
2022-09-02T03:48:51.844Z,20.30
2022-09-02T03:51:20.169Z,20.50
2022-09-02T03:53:50.747Z,20.30
2022-09-02T03:56:19.830Z,20.40
2022-09-02T03:58:50.906Z,20.50
2022-09-02T04:01:21.396Z,20.10
2022-09-02T04:03:52.266Z,20.00
2022-09-02T04:06:25.012Z,20.00
2022-09-02T04:08:57.031Z,19.90
2022-09-02T04:11:25.020Z,19.90
2022-09-02T04:13:55.192Z,19.80
2022-09-02T04:16:28.802Z,19.60
2022-09-02T04:18:59.820Z,19.50
2022-09-02T04:21:28.402Z,19.60
2022-09-02T04:23:57.351Z,19.70
2022-09-02T04:26:25.461Z,19.70
2022-09-02T04:28:54.916Z,19.60
2022-09-02T04:31:34.833Z,19.60
2022-09-02T04:34:09.093Z,19.70
2022-09-02T04:36:37.263Z,19.70
2022-09-02T04:39:08.917Z,19.80
2022-09-02T04:41:37.463Z,19.80
2022-09-02T04:44:09.514Z,19.80
2022-09-02T04:46:37.588Z,19.70
2022-09-02T04:49:06.117Z,19.90
2022-09-02T04:51:34.068Z,20.00
2022-09-02T04:54:02.448Z,20.10
2022-09-02T04:56:34.674Z,20.00
2022-09-02T04:59:02.688Z,19.90
2022-09-02T05:01:34.034Z,19.70
2022-09-02T05:04:04.831Z,19.70
2022-09-02T05:06:35.242Z,19.80
2022-09-02T05:09:04.216Z,20.00
2022-09-02T05:11:33.821Z,20.10
2022-09-02T05:14:04.228Z,20.20
2022-09-02T05:16:39.903Z,20.20
2022-09-02T05:19:09.831Z,20.10
2022-09-02T05:21:41.140Z,19.90
2022-09-02T05:24:12.162Z,19.90
2022-09-02T05:26:44.553Z,19.90
2022-09-02T05:29:14.249Z,19.90
2022-09-02T05:31:43.578Z,20.00
2022-09-02T05:34:11.850Z,20.00
2022-09-02T05:36:47.951Z,20.00
2022-09-02T05:39:15.944Z,20.00
2022-09-02T05:41:43.911Z,19.90
2022-09-02T05:44:14.743Z,19.90
2022-09-02T05:46:48.593Z,19.90
2022-09-02T05:49:18.234Z,20.00
2022-09-02T05:51:55.084Z,20.10
2022-09-02T05:54:25.755Z,20.20
2022-09-02T05:56:57.875Z,20.20
2022-09-02T05:59:30.816Z,20.10
2022-09-02T06:02:00.382Z,20.00
2022-09-02T06:04:28.956Z,20.10
2022-09-02T06:06:58.933Z,20.30
2022-09-02T06:09:29.715Z,20.30
2022-09-02T06:12:01.253Z,20.30
2022-09-02T06:14:29.189Z,20.30
2022-09-02T06:16:59.319Z,20.30
2022-09-02T06:19:32.518Z,20.10
2022-09-02T06:22:02.621Z,20.30
2022-09-02T06:24:31.842Z,20.30
2022-09-02T06:27:01.980Z,20.50
2022-09-02T06:29:31.573Z,20.60
2022-09-02T06:32:04.160Z,20.50
2022-09-02T06:34:32.116Z,20.60
2022-09-02T06:37:03.874Z,20.70
2022-09-02T06:39:32.028Z,20.80
2022-09-02T06:41:59.926Z,20.90
2022-09-02T06:44:32.725Z,20.90
2022-09-02T06:47:02.069Z,20.90
2022-09-02T06:49:31.688Z,20.90
2022-09-02T06:52:00.408Z,20.90
2022-09-02T06:54:28.298Z,21.00
2022-09-02T06:56:56.332Z,21.00
2022-09-02T06:59:24.525Z,21.00
2022-09-02T07:02:00.479Z,21.30
2022-09-02T07:04:45.800Z,21.30
2022-09-02T07:07:17.978Z,21.50
2022-09-02T07:09:46.527Z,21.60
2022-09-02T07:12:15.251Z,21.80
2022-09-02T07:14:44.959Z,21.70
2022-09-02T07:17:21.679Z,21.80
2022-09-02T07:19:52.118Z,21.80
2022-09-02T07:22:23.413Z,21.70
2022-09-02T07:24:51.525Z,21.60
2022-09-02T07:27:25.064Z,21.70
2022-09-02T07:29:56.297Z,21.60
2022-09-02T07:35:07.699Z,21.70
2022-09-02T07:37:37.412Z,21.70
2022-09-02T07:40:07.332Z,21.70
2022-09-02T07:42:38.527Z,21.70
2022-09-02T07:45:08.045Z,21.80
2022-09-02T07:47:35.992Z,22.00
2022-09-02T07:50:22.262Z,22.00
2022-09-02T07:52:54.339Z,22.10
2022-09-02T07:55:22.905Z,22.10
2022-09-02T07:57:52.408Z,22.20
2022-09-02T08:00:22.989Z,22.20
2022-09-02T08:02:51.135Z,22.30
2022-09-02T08:05:19.295Z,22.40
2022-09-02T08:07:49.855Z,22.50
2022-09-02T08:10:29.462Z,22.60
2022-09-02T08:12:58.288Z,22.70
2022-09-02T08:15:30.432Z,22.70
2022-09-02T08:18:01.763Z,22.70
2022-09-02T08:20:30.461Z,22.80
2022-09-02T08:25:47.559Z,22.70
2022-09-02T08:28:15.909Z,22.60
2022-09-02T08:30:46.310Z,22.80
2022-09-02T08:33:14.319Z,22.90
2022-09-02T08:35:42.319Z,22.90
2022-09-02T08:38:12.360Z,22.90
2022-09-02T08:40:48.051Z,22.90
2022-09-02T08:43:31.694Z,23.00
2022-09-02T08:46:05.071Z,23.10
2022-09-02T08:48:38.884Z,23.10
2022-09-02T08:51:13.810Z,23.00
2022-09-02T08:53:49.063Z,23.20
2022-09-02T08:56:21.259Z,23.20
2022-09-02T08:58:52.904Z,23.20
2022-09-02T09:01:37.180Z,23.30
2022-09-02T09:04:21.637Z,23.50
2022-09-02T09:07:17.666Z,23.50
2022-09-02T09:09:59.883Z,23.50
2022-09-02T09:12:45.214Z,23.60
2022-09-02T09:15:20.039Z,23.60
2022-09-02T09:17:57.421Z,23.70
2022-09-02T09:20:27.794Z,23.80
2022-09-02T09:22:58.711Z,23.90
2022-09-02T09:25:29.645Z,23.80
2022-09-02T09:27:59.148Z,23.90
2022-09-02T09:30:29.919Z,24.10
2022-09-02T09:33:00.462Z,24.20
2022-09-02T09:35:32.388Z,24.20
2022-09-02T09:38:14.151Z,24.20
2022-09-02T09:40:42.402Z,24.10
2022-09-02T09:43:20.068Z,24.10
2022-09-02T09:45:58.195Z,24.20
2022-09-02T09:48:30.084Z,24.20
2022-09-02T09:51:16.470Z,24.30
2022-09-02T09:53:53.082Z,24.40
2022-09-02T09:56:28.221Z,24.40
2022-09-02T09:59:02.853Z,24.50
2022-09-02T10:01:33.015Z,24.50
2022-09-02T10:04:12.181Z,24.50
2022-09-02T10:06:51.553Z,24.60
2022-09-02T10:09:36.418Z,24.70
2022-09-02T10:12:08.333Z,24.80
2022-09-02T10:14:44.310Z,24.80
2022-09-02T10:17:33.633Z,24.90
2022-09-02T10:20:09.065Z,25.00
2022-09-02T10:23:04.671Z,24.90
2022-09-02T10:25:40.984Z,24.90
2022-09-02T10:28:25.020Z,25.00
2022-09-02T10:31:07.480Z,25.00
2022-09-02T10:33:45.696Z,25.00
2022-09-02T10:36:25.150Z,25.00
2022-09-02T10:39:06.648Z,24.90
2022-09-02T10:41:48.430Z,24.80
2022-09-02T10:44:41.225Z,24.90
2022-09-02T10:47:21.888Z,24.90
2022-09-02T10:50:12.946Z,25.00
2022-09-02T10:52:56.046Z,25.20
2022-09-02T10:55:40.152Z,25.40
2022-09-02T10:58:13.729Z,25.60
2022-09-02T11:00:50.210Z,25.60
2022-09-02T11:03:25.206Z,25.60
2022-09-02T11:05:55.593Z,25.60
2022-09-02T11:08:31.855Z,25.70
2022-09-02T11:11:11.308Z,25.70
2022-09-02T11:13:51.588Z,25.80
2022-09-02T11:16:25.875Z,25.80
2022-09-02T11:19:01.025Z,25.80
2022-09-02T11:21:38.268Z,25.90
2022-09-02T11:24:12.283Z,26.00
2022-09-02T11:26:47.755Z,26.00
2022-09-02T11:29:19.203Z,26.00
2022-09-02T11:31:57.727Z,26.10
2022-09-02T11:34:41.965Z,26.20
2022-09-02T11:37:13.155Z,26.30
2022-09-02T11:39:56.485Z,26.30
2022-09-02T11:42:58.863Z,26.50
2022-09-02T11:46:01.715Z,26.30
2022-09-02T11:49:01.232Z,25.90
2022-09-02T11:52:02.258Z,25.90
2022-09-02T11:54:41.621Z,26.20
2022-09-02T11:57:14.806Z,26.70
2022-09-02T12:00:11.181Z,26.90
2022-09-02T12:02:45.759Z,27.10
2022-09-02T12:05:56.079Z,27.20
2022-09-02T12:09:03.395Z,27.40
2022-09-02T12:11:50.193Z,27.50
2022-09-02T12:15:14.871Z,27.50
2022-09-02T12:18:14.596Z,27.70
2022-09-02T12:21:16.014Z,27.70
2022-09-02T12:24:21.590Z,27.50
2022-09-02T12:27:12.323Z,27.40
2022-09-02T12:29:45.491Z,27.10
2022-09-02T12:32:44.669Z,27.10
2022-09-02T12:35:14.843Z,27.50
2022-09-02T12:37:54.782Z,27.60
2022-09-02T12:40:33.673Z,27.50
2022-09-02T12:43:07.468Z,27.80
2022-09-02T12:45:42.224Z,27.70
2022-09-02T12:48:14.569Z,27.90
2022-09-02T12:50:57.198Z,28.10
2022-09-02T12:53:36.563Z,28.10
2022-09-02T12:56:21.183Z,27.90
2022-09-02T12:59:00.154Z,28.10
2022-09-02T13:01:38.551Z,28.20
2022-09-02T13:04:32.534Z,28.30
2022-09-02T13:07:48.280Z,28.30
2022-09-02T13:10:33.770Z,28.30
2022-09-02T13:13:52.155Z,28.30
2022-09-02T13:16:37.994Z,28.50
2022-09-02T13:19:34.101Z,28.50
2022-09-02T13:22:31.144Z,28.60
2022-09-02T13:25:31.654Z,28.70
2022-09-02T13:28:36.691Z,28.70
2022-09-02T13:31:23.138Z,28.60
2022-09-02T13:34:02.011Z,28.70
2022-09-02T13:36:37.181Z,28.50
2022-09-02T13:39:18.500Z,28.30
2022-09-02T13:41:47.699Z,28.40
2022-09-02T13:44:23.705Z,28.50
2022-09-02T13:46:57.637Z,28.50
2022-09-02T13:49:28.536Z,28.50
2022-09-02T13:51:57.754Z,28.60
2022-09-02T13:54:33.650Z,28.70
2022-09-02T13:57:08.362Z,28.80
2022-09-02T13:59:41.020Z,28.80
2022-09-02T14:02:33.709Z,28.90
2022-09-02T14:05:07.751Z,28.80
2022-09-02T14:07:40.822Z,28.80
2022-09-02T14:10:12.254Z,28.70
2022-09-02T14:12:41.504Z,28.90
2022-09-02T14:15:12.150Z,28.80
2022-09-02T14:17:44.908Z,28.90
2022-09-02T14:20:21.558Z,29.00
2022-09-02T14:22:57.491Z,29.00
2022-09-02T14:25:27.583Z,29.10
2022-09-02T14:27:57.441Z,29.20
2022-09-02T14:30:30.660Z,29.20
2022-09-02T14:33:26.555Z,29.20
2022-09-02T14:35:59.553Z,29.30
2022-09-02T14:38:29.120Z,29.30
2022-09-02T14:41:05.546Z,29.30
2022-09-02T14:43:44.378Z,29.30
2022-09-02T14:46:38.042Z,29.30
2022-09-02T14:49:10.768Z,29.40
2022-09-02T14:51:48.443Z,29.50
2022-09-02T14:54:35.110Z,29.60
2022-09-02T14:57:03.445Z,29.60
2022-09-02T14:59:31.698Z,29.70
2022-09-02T15:02:02.543Z,29.60
2022-09-02T15:04:35.652Z,29.60
2022-09-02T15:07:05.756Z,29.60
2022-09-02T15:09:36.246Z,29.70
2022-09-02T15:12:04.510Z,29.80
2022-09-02T15:14:32.465Z,29.70
2022-09-02T15:17:00.540Z,29.70
2022-09-02T15:19:28.471Z,29.60
2022-09-02T15:22:00.885Z,29.60
2022-09-02T15:24:28.800Z,29.60
2022-09-02T15:26:56.739Z,29.60
2022-09-02T15:29:29.095Z,29.60
2022-09-02T15:31:57.148Z,29.60
2022-09-02T15:34:31.124Z,29.60
2022-09-02T15:37:00.839Z,29.30
2022-09-02T15:39:31.017Z,29.20
2022-09-02T15:41:59.017Z,29.10
2022-09-02T15:44:28.353Z,28.90
2022-09-02T15:46:59.205Z,28.70
2022-09-02T15:49:27.434Z,28.60
2022-09-02T15:52:05.441Z,28.40
2022-09-02T15:54:34.750Z,28.20
2022-09-02T15:57:03.216Z,28.00
2022-09-02T15:59:33.953Z,27.90
2022-09-02T16:02:02.280Z,27.90
2022-09-02T16:04:30.270Z,27.80
2022-09-02T16:07:05.480Z,27.50
2022-09-02T16:09:34.744Z,27.50
2022-09-02T16:12:02.749Z,27.70
2022-09-02T16:14:30.694Z,27.60
2022-09-02T16:17:00.763Z,27.60
2022-09-02T16:19:31.882Z,27.70
2022-09-02T16:22:02.179Z,27.80
2022-09-02T16:24:30.103Z,27.90
2022-09-02T16:26:59.365Z,27.90
2022-09-02T16:29:32.958Z,27.90
2022-09-02T16:34:46.670Z,28.00
2022-09-02T16:37:14.650Z,27.80
2022-09-02T16:39:51.412Z,27.50
2022-09-02T16:42:33.794Z,27.60
2022-09-02T16:45:04.262Z,27.60
2022-09-02T16:47:34.723Z,27.70
2022-09-02T16:50:02.587Z,27.60
2022-09-02T16:52:35.026Z,27.60
2022-09-02T16:55:06.879Z,27.60
2022-09-02T16:57:36.146Z,27.60
2022-09-02T17:00:05.431Z,27.60
2022-09-02T17:02:33.887Z,27.50
2022-09-02T17:05:01.885Z,27.50
2022-09-02T17:07:29.841Z,27.50
2022-09-02T17:09:57.779Z,27.50
2022-09-02T17:12:25.798Z,27.50
2022-09-02T17:14:55.693Z,27.50
2022-09-02T17:17:26.451Z,27.50
2022-09-02T17:19:57.535Z,27.50
2022-09-02T17:22:25.483Z,27.50
2022-09-02T17:24:55.959Z,27.40
2022-09-02T17:27:23.913Z,27.40
2022-09-02T17:30:05.767Z,27.30
2022-09-02T17:32:35.024Z,27.40
2022-09-02T17:35:06.003Z,27.30
2022-09-02T17:37:37.315Z,27.20
2022-09-02T17:40:06.732Z,27.10
2022-09-02T17:42:34.427Z,26.90
2022-09-02T17:45:06.026Z,26.90
2022-09-02T17:47:35.322Z,26.60
2022-09-02T17:50:03.279Z,26.60
2022-09-02T17:52:31.157Z,26.70
2022-09-02T17:54:59.460Z,26.50
2022-09-02T17:57:42.731Z,26.60
2022-09-02T18:00:20.593Z,26.60
2022-09-02T18:03:27.466Z,26.60
2022-09-02T18:06:10.279Z,26.50
2022-09-02T18:08:50.826Z,26.40
2022-09-02T18:11:20.470Z,26.40
2022-09-02T18:14:03.762Z,26.50
2022-09-02T18:16:36.472Z,26.50
2022-09-02T18:19:38.563Z,26.30
2022-09-02T18:22:20.322Z,26.40
2022-09-02T18:25:08.361Z,26.20
2022-09-02T18:27:49.933Z,26.20
2022-09-02T18:30:22.222Z,26.20
2022-09-02T18:33:15.085Z,26.20
2022-09-02T18:35:55.688Z,26.20
2022-09-02T18:38:31.814Z,26.10
2022-09-02T18:41:14.474Z,25.80
2022-09-02T18:44:05.496Z,25.80
2022-09-02T18:46:37.259Z,25.80
2022-09-02T18:49:09.644Z,25.90
2022-09-02T18:51:44.253Z,25.90
2022-09-02T18:54:16.776Z,25.90
2022-09-02T18:56:50.622Z,25.90
2022-09-02T18:59:25.959Z,25.90
2022-09-02T19:02:04.254Z,25.80
2022-09-02T19:04:34.442Z,25.80
2022-09-02T19:07:21.618Z,25.70
2022-09-02T19:09:49.603Z,25.70
2022-09-02T19:12:17.599Z,25.70
2022-09-02T19:14:48.794Z,25.60
2022-09-02T19:17:17.205Z,25.50
2022-09-02T19:19:45.160Z,25.50
2022-09-02T19:22:14.520Z,25.50
2022-09-02T19:24:47.231Z,25.40
2022-09-02T19:27:17.610Z,25.30
2022-09-02T19:29:51.284Z,25.30
2022-09-02T19:32:28.550Z,25.20
2022-09-02T19:34:57.865Z,25.20
2022-09-02T19:37:30.133Z,25.30
2022-09-02T19:40:03.808Z,25.20
2022-09-02T19:42:35.812Z,25.20
2022-09-02T19:45:04.070Z,25.10
2022-09-02T19:50:22.236Z,25.10
2022-09-02T19:52:51.573Z,25.00
2022-09-02T19:55:20.492Z,25.10
2022-09-02T19:57:48.449Z,25.10
2022-09-02T20:00:19.679Z,25.10
2022-09-02T20:02:47.654Z,25.10
2022-09-02T20:05:25.143Z,25.00
2022-09-02T20:07:56.892Z,25.00
2022-09-02T20:10:27.814Z,25.00
2022-09-02T20:12:57.947Z,25.00
2022-09-02T20:15:26.025Z,25.00
2022-09-02T20:17:56.134Z,24.90
2022-09-02T20:20:26.347Z,24.90
2022-09-02T20:22:57.382Z,24.70
2022-09-02T20:25:36.798Z,24.70
2022-09-02T20:28:16.181Z,24.70
2022-09-02T20:30:48.141Z,24.60
2022-09-02T20:33:20.999Z,24.50
2022-09-02T20:36:20.164Z,24.50
2022-09-02T20:39:14.024Z,24.40
2022-09-02T20:41:51.757Z,24.30
2022-09-02T20:44:39.909Z,24.30
2022-09-02T20:47:30.945Z,24.30
2022-09-02T20:50:11.857Z,24.30
2022-09-02T20:52:52.995Z,24.30
2022-09-02T20:55:26.980Z,24.30
2022-09-02T20:58:17.400Z,24.20
2022-09-02T21:01:01.318Z,24.20
2022-09-02T21:03:41.200Z,24.10
2022-09-02T21:06:12.073Z,24.10
2022-09-02T21:08:47.059Z,24.00
2022-09-02T21:11:16.729Z,24.00
2022-09-02T21:13:49.564Z,24.10
2022-09-02T21:16:20.637Z,24.00
2022-09-02T21:18:58.228Z,24.00
2022-09-02T21:21:35.382Z,23.90
2022-09-02T21:24:08.623Z,23.80
2022-09-02T21:26:49.105Z,23.90
2022-09-02T21:29:22.374Z,24.00
2022-09-02T21:31:56.306Z,23.90
2022-09-02T21:34:34.514Z,23.80
2022-09-02T21:37:10.910Z,23.90
2022-09-02T21:39:44.449Z,23.80
2022-09-02T21:42:22.248Z,23.80
2022-09-02T21:45:02.565Z,23.80
2022-09-02T21:47:36.390Z,23.70
2022-09-02T21:50:16.627Z,23.60
2022-09-02T21:53:04.883Z,23.50
2022-09-02T21:55:47.246Z,23.50
2022-09-02T21:58:47.424Z,23.40
2022-09-02T22:01:23.343Z,23.50
2022-09-02T22:03:58.207Z,23.60
2022-09-02T22:06:32.646Z,23.70
2022-09-02T22:09:08.488Z,23.60
2022-09-02T22:11:43.373Z,23.60
2022-09-02T22:14:15.789Z,23.50
2022-09-02T22:16:53.837Z,23.50
2022-09-02T22:19:23.835Z,23.60
2022-09-02T22:21:55.161Z,23.60
2022-09-02T22:24:28.390Z,23.60
2022-09-02T22:27:04.775Z,23.60
2022-09-02T22:29:38.557Z,23.60
2022-09-02T22:32:12.199Z,23.50
2022-09-02T22:34:44.270Z,23.40
2022-09-02T22:37:19.801Z,23.50
2022-09-02T22:39:51.693Z,23.50
2022-09-02T22:42:26.980Z,23.40
2022-09-02T22:45:22.595Z,23.50
2022-09-02T22:48:20.434Z,23.40
2022-09-02T22:51:18.857Z,23.40
2022-09-02T22:53:47.923Z,23.40
2022-09-02T22:56:22.600Z,23.40
2022-09-02T22:59:26.230Z,23.30
2022-09-02T23:02:05.887Z,23.40
2022-09-02T23:04:45.343Z,23.40
2022-09-02T23:07:13.363Z,23.40
2022-09-02T23:09:46.253Z,23.30
2022-09-02T23:12:33.994Z,23.30
2022-09-02T23:15:23.763Z,23.30
2022-09-02T23:17:59.238Z,23.20
2022-09-02T23:20:41.546Z,23.10
2022-09-02T23:23:24.555Z,23.20
2022-09-02T23:26:12.164Z,23.10
2022-09-02T23:28:54.232Z,23.00
2022-09-02T23:31:35.081Z,22.90
2022-09-02T23:34:15.380Z,22.90
2022-09-02T23:36:50.733Z,22.90
2022-09-02T23:39:36.305Z,22.80
2022-09-02T23:42:04.694Z,22.70
2022-09-02T23:44:36.227Z,22.70
2022-09-02T23:47:15.087Z,22.60
2022-09-02T23:49:54.918Z,22.60
2022-09-02T23:52:30.493Z,22.70
2022-09-02T23:55:04.411Z,22.80
2022-09-02T23:57:55.958Z,22.50
